Time;durP1;ratioP1;P1;durP2;ratioP2;P2;SDS_P1;SDS_P2;PMS_P1;PMS_P2;Temp;Humidity;BMP_temperature;BMP_pressure;BME280_temperature;BME280_humidity;BME280_pressure;Samples;Min_cycle;Max_cycle;Signal;HPM_P1;HPM_P2
2022/11/14 00:01:12;;;;;;;184.52;132.20;;;5.70;99.90;;;5.69;100.00;100417.19;4929049;28;20285;-67
2022/11/14 00:03:39;;;;;;;176.40;127.60;;;5.70;99.90;;;5.71;100.00;100426.91;4939352;28;20258;-67
2022/11/14 00:06:07;;;;;;;184.63;133.45;;;5.40;99.90;;;5.75;100.00;100428.75;4951877;28;20871;-67
2022/11/14 00:08:35;;;;;;;175.85;129.80;;;5.80;99.90;;;5.76;100.00;100429.66;4945259;28;20306;-67
2022/11/14 00:11:02;;;;;;;154.57;121.70;;;5.80;99.90;;;5.76;100.00;100427.03;4951841;28;20627;-67
2022/11/14 00:13:29;;;;;;;174.40;128.82;;;5.80;99.90;;;5.78;100.00;100430.59;4952267;28;20288;-67
2022/11/14 00:15:56;;;;;;;166.73;130.77;;;5.80;99.90;;;5.79;100.00;100434.97;4952284;28;20245;-67
2022/11/14 00:18:23;;;;;;;188.85;136.98;;;5.80;99.90;;;5.79;100.00;100432.34;4932519;28;20242;-67
2022/11/14 00:20:52;;;;;;;174.75;131.13;;;5.80;99.90;;;5.78;100.00;100425.34;4928373;28;20244;-67
2022/11/14 00:23:21;;;;;;;174.15;128.57;;;5.80;99.90;;;5.77;100.00;100415.69;4950364;28;20237;-67
2022/11/14 00:25:48;;;;;;;175.50;131.18;;;5.80;99.90;;;5.73;100.00;100409.47;4923452;28;20244;-67
2022/11/14 00:28:15;;;;;;;173.88;131.68;;;5.80;99.90;;;5.75;100.00;100414.75;4942417;28;20253;-67
2022/11/14 00:30:47;;;;;;;168.32;131.23;;;5.80;99.90;;;5.74;100.00;100406.00;4949173;28;20541;-67
2022/11/14 00:33:14;;;;;;;180.32;132.48;;;5.80;99.90;;;5.74;100.00;100399.84;4937974;28;20253;-67
2022/11/14 00:35:51;;;;;;;175.82;131.85;;;5.80;99.90;;;5.78;100.00;100396.47;4942062;28;20284;-67
2022/11/14 00:38:18;;;;;;;172.88;126.93;;;5.80;99.90;;;5.81;100.00;100408.78;4961880;28;20324;-67
2022/11/14 00:40:45;;;;;;;170.00;130.68;;;5.80;99.90;;;5.79;100.00;100399.13;4931128;28;20232;-67
2022/11/14 00:43:12;;;;;;;196.43;134.57;;;5.80;99.90;;;5.76;100.00;100393.81;4943625;28;20774;-67
2022/11/14 00:45:43;;;;;;;177.82;130.98;;;5.80;99.90;;;5.82;100.00;100384.31;4941226;28;20250;-67
2022/11/14 00:48:10;;;;;;;182.73;134.23;;;5.80;99.90;;;5.81;100.00;100390.41;4921220;28;20310;-67
2022/11/14 00:50:37;;;;;;;186.23;135.13;;;5.80;99.90;;;5.79;100.00;100391.25;4936517;28;20240;-67
2022/11/14 00:53:04;;;;;;;182.50;137.43;;;5.80;99.90;;;5.84;100.00;100388.75;4941712;28;20230;-66
2022/11/14 00:55:31;;;;;;;176.73;133.77;;;5.80;99.90;;;5.82;100.00;100385.22;4924163;29;20231;-66
2022/11/14 00:57:58;;;;;;;169.10;134.00;;;5.80;99.90;;;5.79;100.00;100383.38;4926404;28;20253;-67
2022/11/14 01:00:25;;;;;;;176.13;132.23;;;5.80;99.90;;;5.81;100.00;100388.69;4943461;28;20235;-67
2022/11/14 01:02:55;;;;;;;183.07;135.07;;;5.90;99.90;;;5.86;100.00;100381.81;4947134;28;20321;-67
2022/11/14 01:05:23;;;;;;;174.00;132.82;;;5.90;99.90;;;5.89;100.00;100388.88;4938100;28;20300;-67
2022/11/14 01:07:50;;;;;;;172.18;130.18;;;5.90;99.90;;;5.88;100.00;100389.72;4930701;28;20233;-67
2022/11/14 01:10:19;;;;;;;162.32;130.05;;;5.90;99.90;;;5.85;100.00;100384.41;4934491;28;20245;-67
2022/11/14 01:12:47;;;;;;;185.05;137.27;;;5.90;99.90;;;5.87;100.00;100387.97;4945782;28;20230;-67
2022/11/14 01:15:14;;;;;;;178.23;134.50;;;5.90;99.90;;;5.91;100.00;100390.75;4943403;28;20225;-67
2022/11/14 01:17:41;;;;;;;195.13;146.98;;;6.40;99.90;;;5.93;100.00;100394.28;4928726;28;20237;-67
2022/11/14 01:20:08;;;;;;;178.32;137.98;;;5.90;99.90;;;5.94;100.00;100389.94;4923248;28;20316;-67
2022/11/14 01:22:35;;;;;;;180.40;137.02;;;5.90;99.90;;;5.95;100.00;100387.34;4942588;28;20257;-67
2022/11/14 01:25:02;;;;;;;187.75;139.98;;;6.00;99.90;;;5.97;100.00;100388.28;4948456;28;20324;-67
2022/11/14 01:27:32;;;;;;;187.65;140.45;;;6.00;99.90;;;5.97;100.00;100383.03;4929863;29;20325;-67
2022/11/14 01:29:59;;;;;;;179.48;136.30;;;6.00;99.90;;;5.99;100.00;100383.97;4924860;28;20233;-67
2022/11/14 01:32:27;;;;;;;182.40;138.82;;;6.00;99.90;;;5.95;100.00;100379.47;4932344;28;20241;-67
2022/11/14 01:34:54;;;;;;;192.40;147.52;;;6.00;99.90;;;5.96;100.00;100376.00;4926421;28;20336;-67
2022/11/14 01:37:21;;;;;;;177.80;141.02;;;6.00;99.90;;;5.97;100.00;100380.41;4931624;28;20267;-67
2022/11/14 01:39:48;;;;;;;180.88;140.73;;;6.00;99.90;;;5.98;100.00;100376.03;4944014;28;20262;-66
2022/11/14 01:42:15;;;;;;;187.02;139.85;;;6.00;99.90;;;5.96;100.00;100369.88;4931529;28;20695;-66
2022/11/14 01:44:51;;;;;;;220.88;160.50;;;6.00;99.90;;;6.01;100.00;100369.13;4928627;28;21032;-65
2022/11/14 01:47:27;;;;;;;177.90;137.77;;;6.00;99.90;;;6.02;100.00;100370.03;4930398;28;20245;-65
2022/11/14 01:49:58;;;;;;;190.27;143.60;;;6.00;99.90;;;6.00;100.00;100363.84;4938100;28;20324;-66
2022/11/14 01:52:34;;;;;;;170.43;134.60;;;6.00;99.90;;;5.98;100.00;100355.94;4943441;28;20349;-66
2022/11/14 01:55:08;;;;;;;199.48;147.13;;;6.00;99.90;;;5.98;100.00;100355.03;4939662;28;20310;-65
2022/11/14 01:57:45;;;;;;;190.07;140.05;;;6.00;99.90;;;5.96;100.00;100343.63;4933536;28;20654;-65
2022/11/14 02:00:13;;;;;;;209.95;149.63;;;6.00;99.90;;;5.93;100.00;100336.56;4938415;28;20698;-65
2022/11/14 02:02:42;;;;;;;190.30;145.70;;;6.00;99.90;;;5.94;100.00;100335.69;4927347;28;20312;-66
2022/11/14 02:05:14;;;;;;;176.65;138.63;;;5.90;99.90;;;5.94;100.00;100333.06;4944894;28;20386;-66
2022/11/14 02:07:41;;;;;;;178.95;138.45;;;6.00;99.90;;;5.88;100.00;100325.00;4929348;28;20234;-66
2022/11/14 02:10:19;;;;;;;191.27;145.40;;;5.40;99.90;;;5.94;100.00;100327.81;4931898;28;20266;-66
2022/11/14 02:12:46;;;;;;;187.95;142.50;;;5.90;99.90;;;5.89;100.00;100320.66;4944789;28;20253;-66
2022/11/14 02:15:14;;;;;;;173.63;136.57;;;5.90;99.90;;;5.87;100.00;100311.84;4943000;28;20265;-66
2022/11/14 02:17:43;;;;;;;214.30;151.95;;;5.90;99.90;;;5.90;100.00;100310.22;4928055;28;20242;-66
2022/11/14 02:20:10;;;;;;;193.85;144.48;;;5.90;99.90;;;5.86;100.00;100302.19;4941133;28;20307;-66
2022/11/14 02:22:40;;;;;;;188.57;144.18;;;5.90;99.90;;;5.85;100.00;100300.44;4940452;28;20230;-66
2022/11/14 02:25:09;;;;;;;185.63;141.35;;;5.90;99.90;;;5.89;100.00;100312.78;4923760;28;20320;-66
2022/11/14 02:27:38;;;;;;;184.40;137.15;;;5.90;99.90;;;5.86;100.00;100299.56;4949166;28;20316;-68
2022/11/14 02:30:14;;;;;;;203.32;144.52;;;5.90;99.90;;;5.83;100.00;100303.00;4947689;28;20249;-66
2022/11/14 02:32:42;;;;;;;187.18;139.68;;;5.90;99.90;;;5.84;100.00;100302.16;4952546;28;20306;-66
2022/11/14 02:35:28;;;;;;;185.85;134.30;;;5.90;99.90;;;5.82;100.00;100295.09;4936473;28;20256;-66
2022/11/14 02:37:56;;;;;;;193.30;139.77;;;5.90;99.90;;;5.88;100.00;100295.25;4948802;28;20386;-66
2022/11/14 02:40:22;;;;;;;187.43;142.13;;;5.90;99.90;;;5.87;100.00;100293.47;4929890;28;20758;-66
2022/11/14 02:42:49;;;;;;;186.10;141.18;;;5.90;99.90;;;5.90;100.00;100293.59;4946584;28;20321;-67
2022/11/14 02:45:18;;;;;;;208.93;150.20;;;5.90;99.90;;;5.88;100.00;100293.50;4939349;28;20610;-66
2022/11/14 02:47:45;;;;;;;210.10;150.85;;;5.90;99.90;;;5.90;100.00;100294.47;4939439;28;20262;-66
2022/11/14 02:50:12;;;;;;;179.35;138.45;;;5.90;99.90;;;5.88;100.00;100290.88;4927708;28;20313;-67
2022/11/14 02:52:39;;;;;;;171.25;137.90;;;5.90;99.90;;;5.86;100.00;100289.97;4947069;28;20230;-66
2022/11/14 02:55:07;;;;;;;198.27;144.38;;;5.90;99.90;;;5.88;100.00;100295.25;4931217;28;20238;-68
2022/11/14 02:57:34;;;;;;;188.68;141.68;;;5.90;99.90;;;5.91;100.00;100291.00;4942221;28;20644;-66
2022/11/14 03:00:01;;;;;;;212.30;149.20;;;5.90;99.90;;;5.86;100.00;100286.44;4935563;28;20233;-66
2022/11/14 03:02:28;;;;;;;185.18;141.82;;;5.90;99.90;;;5.90;100.00;100294.47;4937762;28;20230;-66
2022/11/14 03:04:55;;;;;;;193.02;144.98;;;5.90;99.90;;;5.89;100.00;100295.31;4941211;28;20292;-66
2022/11/14 03:07:22;;;;;;;198.43;148.10;;;5.90;99.90;;;5.89;100.00;100291.78;4944311;28;20241;-66
2022/11/14 03:09:49;;;;;;;189.82;141.95;;;5.90;99.90;;;5.92;100.00;100290.16;4936571;28;20301;-66
2022/11/14 03:12:17;;;;;;;199.38;145.27;;;5.90;99.90;;;5.91;100.00;100284.88;4923218;29;20230;-66
2022/11/14 03:14:45;;;;;;;196.23;149.13;;;5.90;99.90;;;5.92;100.00;100287.53;4923295;28;20239;-66
2022/11/14 03:17:12;;;;;;;194.18;142.70;;;5.90;99.90;;;5.92;100.00;100282.28;4926348;28;20611;-66
2022/11/14 03:19:39;;;;;;;184.70;138.45;;;5.90;99.90;;;5.96;100.00;100280.63;4935602;28;20246;-66
2022/11/14 03:22:06;;;;;;;187.07;140.57;;;6.00;99.90;;;5.96;100.00;100286.75;4938936;28;20234;-68
2022/11/14 03:24:33;;;;;;;182.00;139.65;;;6.00;99.90;;;6.01;100.00;100294.75;4939851;28;20321;-66
2022/11/14 03:27:02;;;;;;;199.27;147.93;;;6.00;99.90;;;6.03;100.00;100296.56;4934892;28;20257;-67
2022/11/14 03:29:30;;;;;;;186.95;144.50;;;6.00;99.90;;;6.02;100.00;100283.41;4940467;28;20691;-67
2022/11/14 03:31:57;;;;;;;180.98;139.27;;;6.00;99.90;;;6.04;100.00;100279.06;4950857;28;20665;-66
2022/11/14 03:34:24;;;;;;;190.68;146.77;;;6.00;99.90;;;6.04;100.00;100281.69;4942554;28;20332;-66
2022/11/14 03:36:51;;;;;;;205.75;153.73;;;6.00;99.90;;;6.08;100.00;100287.06;4938472;28;20245;-66
2022/11/14 03:39:18;;;;;;;182.48;142.65;;;6.10;99.90;;;6.08;100.00;100294.94;4964494;28;20245;-66
2022/11/14 03:41:45;;;;;;;176.00;142.70;;;6.10;99.90;;;6.07;100.00;100295.78;4953248;28;20248;-66
2022/11/14 03:44:12;;;;;;;182.40;142.93;;;6.10;99.90;;;6.08;100.00;100286.19;4944261;28;20272;-67
2022/11/14 03:46:39;;;;;;;185.93;145.43;;;6.10;99.90;;;6.05;100.00;100289.63;4940594;28;20319;-67
2022/11/14 03:49:06;;;;;;;191.05;147.43;;;6.10;99.90;;;6.10;100.00;100285.34;4945089;28;20320;-66
2022/11/14 03:51:33;;;;;;;186.43;142.57;;;6.10;99.90;;;6.12;100.00;100298.53;4938608;28;20226;-66
2022/11/14 03:54:01;;;;;;;197.57;152.65;;;6.10;99.90;;;6.11;100.00;100291.50;4948611;28;20836;-66
2022/11/14 03:56:27;;;;;;;186.50;140.52;;;6.10;99.90;;;6.09;100.00;100296.72;4940731;28;20308;-66
2022/11/14 03:58:54;;;;;;;164.73;135.23;;;6.10;99.90;;;6.12;100.00;100295.00;4933546;28;20247;-66
2022/11/14 04:01:21;;;;;;;190.77;146.55;;;6.10;99.90;;;6.12;100.00;100300.25;4943677;28;20228;-66
2022/11/14 04:03:48;;;;;;;178.20;143.25;;;6.10;99.90;;;6.09;100.00;100301.97;4948567;28;20238;-67
2022/11/14 04:06:15;;;;;;;190.63;145.40;;;6.10;99.90;;;6.10;100.00;100300.22;4944546;28;20297;-66
2022/11/14 04:08:42;;;;;;;181.98;143.73;;;6.10;99.90;;;6.08;100.00;100288.78;4953919;28;20253;-66
2022/11/14 04:11:09;;;;;;;177.20;139.48;;;6.10;99.90;;;6.09;100.00;100294.09;4933723;28;20320;-66
2022/11/14 04:13:36;;;;;;;163.00;136.20;;;6.10;99.90;;;6.08;100.00;100292.31;4950495;28;20257;-68
2022/11/14 04:16:04;;;;;;;180.75;143.15;;;6.10;99.90;;;6.16;100.00;100291.63;4954094;28;20269;-66
2022/11/14 04:18:31;;;;;;;167.25;140.00;;;6.20;99.90;;;6.11;100.00;100288.88;4949064;28;20238;-66
2022/11/14 04:20:58;;;;;;;178.93;144.13;;;6.10;99.90;;;6.03;100.00;100280.81;4945672;28;20277;-66
2022/11/14 04:23:25;;;;;;;193.88;144.73;;;6.10;99.90;;;6.02;100.00;100286.03;4963239;28;20240;-66
2022/11/14 04:25:52;;;;;;;180.75;143.38;;;6.00;99.90;;;5.99;100.00;100285.94;4939514;28;20273;-67
2022/11/14 04:28:19;;;;;;;194.85;148.43;;;6.00;99.90;;;6.01;100.00;100287.75;4929912;28;20241;-66
2022/11/14 04:30:46;;;;;;;190.88;147.10;;;6.00;99.90;;;5.94;100.00;100277.97;4947859;28;20590;-66
2022/11/14 04:33:13;;;;;;;185.18;142.32;;;6.00;99.90;;;5.95;100.00;100278.84;4959478;28;20237;-66
2022/11/14 04:35:40;;;;;;;177.50;141.57;;;6.00;99.90;;;5.97;100.00;100283.28;4933359;28;20234;-67
2022/11/14 04:38:08;;;;;;;181.80;144.05;;;6.00;99.90;;;5.98;100.00;100278.91;4948956;28;20247;-67
2022/11/14 04:40:35;;;;;;;190.20;145.50;;;6.00;99.90;;;6.02;100.00;100289.53;4944236;28;20293;-67
2022/11/14 04:43:02;;;;;;;179.70;141.77;;;6.00;99.90;;;6.02;100.00;100288.66;4924911;29;20229;-67
2022/11/14 04:45:29;;;;;;;188.13;141.45;;;6.00;99.90;;;5.92;100.00;100279.66;4925814;28;20243;-67
2022/11/14 04:47:56;;;;;;;184.75;139.48;;;6.00;99.90;;;5.88;100.00;100272.53;4937468;28;20245;-67
2022/11/14 04:50:23;;;;;;;185.40;141.63;;;5.90;99.90;;;5.89;100.00;100268.16;4943447;28;20300;-67
2022/11/14 04:52:52;;;;;;;189.23;143.90;;;5.90;99.90;;;5.87;100.00;100269.84;4928139;28;20231;-67
2022/11/14 04:55:19;;;;;;;185.55;143.40;;;5.90;99.90;;;5.73;100.00;100259.00;4933577;28;20329;-67
2022/11/14 04:57:46;;;;;;;190.25;144.98;;;5.80;99.90;;;5.51;100.00;100233.97;4929343;28;20349;-67
2022/11/14 05:00:14;;;;;;;196.27;141.85;;;5.70;99.90;;;5.61;100.00;100243.84;4929016;29;20233;-66
2022/11/14 05:02:41;;;;;;;192.38;146.15;;;5.70;99.90;;;5.63;100.00;100243.88;4939873;28;20239;-67
2022/11/14 05:05:08;;;;;;;222.35;158.02;;;5.70;99.90;;;5.64;100.00;100261.41;4931369;28;20242;-67
2022/11/14 05:07:35;;;;;;;190.65;141.15;;;5.70;99.90;;;5.62;100.00;100243.00;4931507;28;20241;-66
2022/11/14 05:10:03;;;;;;;165.05;131.25;;;5.70;99.90;;;5.46;100.00;100227.72;4926344;29;20296;-67
2022/11/14 05:12:31;;;;;;;197.00;141.48;;;5.60;99.90;;;5.56;100.00;100234.97;4938402;28;20226;-67
2022/11/14 05:14:58;;;;;;;186.20;137.52;;;5.60;99.90;;;5.49;100.00;100227.78;4940081;28;20293;-67
2022/11/14 05:17:25;;;;;;;185.63;134.38;;;5.60;99.90;;;5.47;100.00;100230.38;4946560;28;20288;-67
2022/11/14 05:19:52;;;;;;;199.27;142.73;;;5.50;99.90;;;5.48;100.00;100220.78;4939053;28;20682;-67
2022/11/14 05:22:19;;;;;;;204.27;144.80;;;5.50;99.90;;;5.50;100.00;100226.06;4940785;28;20328;-67
2022/11/14 05:24:46;;;;;;;194.00;140.30;;;5.50;99.90;;;5.40;100.00;100219.69;4928672;28;20316;-67
2022/11/14 05:27:13;;;;;;;187.95;135.82;;;5.50;99.90;;;5.45;100.00;100220.69;4924845;28;20300;-67
2022/11/14 05:29:40;;;;;;;202.98;142.05;;;5.50;99.90;;;5.49;100.00;100224.28;4924113;28;20309;-67
2022/11/14 05:32:07;;;;;;;210.55;146.95;;;5.50;99.90;;;5.41;100.00;100230.22;4926006;28;20321;-67
2022/11/14 05:34:42;;;;;;;194.57;143.82;;;5.50;99.90;;;5.42;100.00;100229.38;4926214;28;20229;-67
2022/11/14 05:37:09;;;;;;;193.75;140.93;;;5.50;99.90;;;5.45;100.00;100241.69;4922205;28;20312;-67
2022/11/14 05:39:36;;;;;;;160.73;129.77;;;5.50;99.90;;;5.30;100.00;100218.56;4935245;28;20226;-67
2022/11/14 05:42:03;;;;;;;171.20;134.50;;;5.40;99.90;;;5.34;100.00;100230.91;4938799;28;20249;-67
2022/11/14 05:44:30;;;;;;;165.20;129.85;;;5.40;99.90;;;5.32;100.00;100229.09;4925734;28;20633;-67
2022/11/14 05:46:57;;;;;;;167.00;129.00;;;5.40;99.90;;;5.29;100.00;100226.38;4935375;28;20308;-67
2022/11/14 05:49:24;;;;;;;175.95;132.18;;;5.40;99.90;;;5.39;100.00;100237.16;4920130;28;20257;-67
2022/11/14 05:51:51;;;;;;;165.70;127.93;;;5.40;99.90;;;5.35;100.00;100221.31;4907167;28;20234;-67
2022/11/14 05:54:18;;;;;;;174.60;130.73;;;5.40;99.90;;;5.33;100.00;100231.75;4904334;29;20313;-67
2022/11/14 05:56:45;;;;;;;189.15;136.85;;;5.40;99.90;;;5.42;100.00;100241.59;4906555;28;20229;-67
2022/11/14 05:59:12;;;;;;;200.40;139.82;;;5.40;99.90;;;5.40;100.00;100230.19;4925554;28;20225;-67
2022/11/14 06:01:39;;;;;;;175.57;132.82;;;5.40;99.90;;;5.41;100.00;100251.19;4928441;28;20339;-67
2022/11/14 06:04:06;;;;;;;194.23;135.18;;;5.40;99.90;;;5.36;100.00;100231.84;4932614;28;20668;-69
2022/11/14 06:06:33;;;;;;;150.82;124.07;;;5.40;99.90;;;5.33;100.00;100220.38;4923844;28;20247;-67
2022/11/14 06:09:00;;;;;;;165.90;131.10;;;5.40;99.90;;;5.35;100.00;100221.31;4915622;28;20713;-67
2022/11/14 06:11:27;;;;;;;151.85;122.03;;;5.40;99.90;;;5.34;100.00;100222.16;4952335;28;20234;-67
2022/11/14 06:13:54;;;;;;;172.70;131.57;;;5.40;99.90;;;5.36;100.00;100223.97;4932919;28;20324;-67
2022/11/14 06:16:21;;;;;;;194.13;136.07;;;5.40;99.90;;;5.37;100.00;100223.13;4941886;28;20254;-67
2022/11/14 06:18:51;;;;;;;174.05;131.07;;;5.40;99.90;;;5.30;100.00;100208.06;4933182;28;20238;-66
2022/11/14 06:21:21;;;;;;;168.98;129.98;;;5.40;99.90;;;5.36;100.00;100217.84;4948392;28;20730;-67
2022/11/14 06:23:49;;;;;;;169.93;129.43;;;5.40;99.90;;;5.36;100.00;100230.94;4932004;28;20241;-67
2022/11/14 06:26:30;;;;;;;167.02;127.35;;;5.40;99.90;;;5.36;100.00;100223.97;4929899;28;20259;-67
2022/11/14 06:28:58;;;;;;;166.43;125.97;;;5.40;99.90;;;5.35;100.00;100219.56;4930737;28;20264;-67
2022/11/14 06:31:25;;;;;;;177.23;132.02;;;5.40;99.90;;;5.43;100.00;100233.75;4923018;28;20291;-66
2022/11/14 06:33:53;;;;;;;167.52;125.93;;;5.40;99.90;;;5.35;100.00;100216.94;4916295;28;20264;-67
2022/11/14 06:36:20;;;;;;;172.77;129.48;;;5.40;99.90;;;5.40;100.00;100222.31;4926528;28;20320;-67
2022/11/14 06:38:47;;;;;;;178.02;127.00;;;5.40;99.90;;;5.25;100.00;100193.94;4939384;28;20270;-66
2022/11/14 06:41:20;;;;;;;172.82;128.52;;;5.40;99.90;;;5.27;100.00;100210.63;4926344;28;20305;-67
2022/11/14 06:43:50;;;;;;;188.52;130.23;;;5.40;99.90;;;5.40;100.00;100223.19;4945365;28;20282;-67
2022/11/14 06:46:20;;;;;;;171.15;127.72;;;5.40;99.90;;;5.37;100.00;100224.84;4930713;28;20316;-67
2022/11/14 06:48:48;;;;;;;173.68;128.75;;;5.40;99.90;;;5.35;100.00;100240.53;4948566;28;20409;-67
2022/11/14 06:51:16;;;;;;;191.38;134.25;;;5.40;99.90;;;5.34;100.00;100233.53;4946638;28;20237;-67
2022/11/14 06:53:44;;;;;;;182.77;130.80;;;5.40;99.90;;;5.25;100.00;100228.03;4926178;28;20606;-67
2022/11/14 06:56:19;;;;;;;176.73;125.47;;;5.40;99.90;;;5.26;100.00;100229.81;4940390;28;20238;-67
2022/11/14 06:58:48;;;;;;;174.27;123.95;;;5.30;99.90;;;5.29;100.00;100239.50;4943797;28;20311;-67
2022/11/14 07:01:21;;;;;;;181.70;131.93;;;5.30;99.90;;;5.37;100.00;100246.72;4944141;28;20253;-67
2022/11/14 07:03:49;;;;;;;173.15;127.82;;;5.40;99.90;;;5.23;100.00;100228.84;4927024;28;20317;-67
2022/11/14 07:06:23;;;;;;;182.50;126.53;;;5.30;99.90;;;5.24;100.00;100234.13;4944045;28;20320;-67
2022/11/14 07:08:52;;;;;;;182.77;129.70;;;5.30;99.90;;;5.28;100.00;100241.22;4931219;28;20240;-67
2022/11/14 07:11:26;;;;;;;168.23;122.82;;;5.30;99.90;;;5.27;100.00;100238.56;4958614;28;20239;-67
2022/11/14 07:13:57;;;;;;;164.50;121.60;;;5.30;99.90;;;5.33;100.00;100239.63;4963982;28;20259;-67
2022/11/14 07:16:29;;;;;;;185.38;128.65;;;5.30;99.90;;;5.29;100.00;100235.13;4938608;28;20234;-67
2022/11/14 07:18:58;;;;;;;168.68;122.22;;;5.30;99.90;;;5.20;100.00;100231.34;4921914;28;20328;-67
2022/11/14 07:21:27;;;;;;;181.48;127.95;;;5.30;99.90;;;5.26;100.00;100242.91;4919465;28;20301;-67
2022/11/14 07:23:55;;;;;;;178.00;125.68;;;5.30;99.90;;;5.15;100.00;100231.22;4945359;28;20253;-67
2022/11/14 07:26:23;;;;;;;188.23;125.75;;;5.20;99.90;;;5.05;100.00;100232.69;4925877;28;20285;-67
2022/11/14 07:28:50;;;;;;;180.50;122.25;;;5.20;99.90;;;5.13;100.00;100257.38;4936794;28;20301;-67
2022/11/14 07:31:22;;;;;;;177.93;123.50;;;5.20;99.90;;;5.01;100.00;100250.91;4948852;28;20241;-67
2022/11/14 07:33:49;;;;;;;182.35;124.85;;;5.10;99.90;;;5.04;100.00;100251.00;4945944;28;20264;-67
2022/11/14 07:36:16;;;;;;;199.40;131.75;;;5.10;99.90;;;4.90;100.00;100242.75;4944420;28;20317;-67
2022/11/14 07:38:43;;;;;;;195.35;126.97;;;5.00;99.90;;;4.83;100.00;100246.94;4927169;28;20254;-67
2022/11/14 07:41:14;;;;;;;187.15;123.32;;;5.00;99.90;;;4.95;100.00;100259.50;4958351;28;20312;-67
2022/11/14 07:43:41;;;;;;;195.02;128.30;;;5.00;99.90;;;5.05;100.00;100272.00;4933202;28;20229;-67
2022/11/14 07:46:14;;;;;;;200.75;131.82;;;5.10;99.90;;;5.13;100.00;100280.09;4927642;28;20625;-68
2022/11/14 07:48:42;;;;;;;171.40;120.70;;;5.20;99.90;;;5.25;100.00;100283.09;4933913;28;20304;-68
2022/11/14 07:51:17;;;;;;;188.30;128.55;;;5.30;99.90;;;5.21;100.00;100277.72;4928408;28;20317;-67
2022/11/14 07:53:44;;;;;;;166.18;119.78;;;5.20;99.90;;;5.11;100.00;100261.69;4963207;28;20233;-67
2022/11/14 07:56:12;;;;;;;209.13;134.25;;;5.20;99.90;;;5.15;100.00;100274.03;4943776;28;20289;-67
2022/11/14 07:58:40;;;;;;;179.10;124.85;;;5.20;99.90;;;5.11;100.00;100272.19;4942828;28;20316;-68
2022/11/14 08:01:10;;;;;;;179.70;124.38;;;5.20;99.90;;;5.16;100.00;100280.19;4940538;28;20253;-67
2022/11/14 08:03:38;;;;;;;181.32;124.25;;;5.20;99.90;;;5.17;100.00;100270.59;4960863;28;20234;-68
2022/11/14 08:06:14;;;;;;;189.57;129.18;;;5.20;99.90;;;5.14;100.00;100267.03;4942801;28;20242;-67
2022/11/14 08:08:41;;;;;;;196.82;133.38;;;5.20;99.90;;;5.26;100.00;100265.63;4929332;28;20325;-67
2022/11/14 08:11:10;;;;;;;181.68;125.47;;;5.20;99.90;;;5.16;100.00;100259.22;4933261;29;20261;-67
2022/11/14 08:13:37;;;;;;;196.48;131.95;;;5.20;99.90;;;5.21;100.00;100256.75;4932010;28;20249;-67
2022/11/14 08:16:09;;;;;;;178.02;124.65;;;5.20;99.90;;;5.18;100.00;100249.66;4942398;28;20261;-67
2022/11/14 08:18:40;;;;;;;197.70;132.00;;;5.20;99.90;;;5.22;100.00;100250.66;4939397;28;20237;-67
2022/11/14 08:21:07;;;;;;;182.60;126.95;;;5.20;99.90;;;5.22;100.00;100248.91;4935421;28;20229;-69
2022/11/14 08:23:34;;;;;;;176.63;125.38;;;5.70;99.90;;;5.25;100.00;100256.88;4939362;28;20296;-67
2022/11/14 08:26:01;;;;;;;189.15;130.55;;;5.30;99.90;;;5.30;100.00;100259.63;4945378;29;20261;-67
2022/11/14 08:28:28;;;;;;;193.98;132.77;;;5.30;99.90;;;5.40;100.00;100269.50;4945748;28;20237;-67
2022/11/14 08:31:01;;;;;;;188.40;131.48;;;5.40;99.90;;;5.23;100.00;100247.19;4939105;28;20229;-67
2022/11/14 08:33:29;;;;;;;188.82;130.80;;;5.30;99.90;;;5.40;100.00;100254.66;4946039;28;20281;-67
2022/11/14 08:36:01;;;;;;;184.07;128.60;;;5.40;99.90;;;5.51;100.00;100265.44;4947893;28;20251;-66
2022/11/14 08:38:30;;;;;;;195.38;133.35;;;5.50;99.90;;;5.43;100.00;100248.63;4930048;29;20238;-67
2022/11/14 08:40:58;;;;;;;199.90;136.35;;;5.50;99.90;;;5.39;100.00;100252.88;4939195;28;20229;-67
2022/11/14 08:43:26;;;;;;;202.55;137.88;;;5.40;99.90;;;5.51;100.00;100275.03;4929502;28;20246;-67
2022/11/14 08:45:59;;;;;;;188.75;132.05;;;5.50;99.90;;;5.45;100.00;100263.53;4947081;28;20778;-67
2022/11/14 08:48:29;;;;;;;189.07;129.82;;;5.50;99.90;;;5.51;100.00;100264.56;4924904;29;20661;-66
2022/11/14 08:51:01;;;;;;;200.02;133.80;;;5.50;99.90;;;5.51;100.00;100257.56;4948925;28;20287;-67
2022/11/14 08:53:29;;;;;;;187.20;132.30;;;5.50;99.90;;;5.66;100.00;100280.69;4935996;28;20287;-67
2022/11/14 08:55:56;;;;;;;190.55;135.13;;;5.60;99.90;;;5.70;100.00;100282.56;4943696;28;20247;-66
2022/11/14 08:58:23;;;;;;;189.55;135.00;;;5.60;99.90;;;5.81;100.00;100288.97;4956007;28;20283;-67
2022/11/14 09:00:51;;;;;;;185.52;135.07;;;5.80;99.90;;;5.82;100.00;100287.22;4931645;28;20387;-67
2022/11/14 09:03:18;;;;;;;205.80;148.32;;;5.80;99.90;;;5.83;100.00;100294.25;4928545;28;20773;-67
2022/11/14 09:05:51;;;;;;;190.23;139.32;;;5.90;99.90;;;5.79;100.00;100282.78;4941087;28;20238;-67
2022/11/14 09:08:18;;;;;;;189.57;137.68;;;5.90;99.90;;;5.64;100.00;100266.66;4916934;28;20229;-67
2022/11/14 09:10:46;;;;;;;199.05;146.90;;;5.70;99.90;;;5.66;100.00;100270.19;4944617;28;20317;-66
2022/11/14 09:13:14;;;;;;;200.10;145.13;;;5.70;99.90;;;5.83;100.00;100273.25;4926128;28;20289;-67
2022/11/14 09:15:42;;;;;;;198.35;145.88;;;5.80;99.90;;;5.85;100.00;100274.19;4941355;28;20301;-69
2022/11/14 09:18:10;;;;;;;226.60;158.15;;;5.80;99.90;;;5.86;100.00;100265.47;4935244;28;20296;-67
2022/11/14 09:20:38;;;;;;;192.35;144.30;;;5.90;99.90;;;6.05;100.00;100283.47;4941100;28;20241;-67
2022/11/14 09:23:06;;;;;;;232.93;166.50;;;6.00;99.90;;;6.02;100.00;100279.03;4933256;29;20644;-67
2022/11/14 09:25:35;;;;;;;197.52;153.75;;;6.00;99.90;;;6.01;100.00;100279.88;4916659;29;20312;-67
2022/11/14 09:28:06;;;;;;;211.60;159.30;;;6.00;99.90;;;6.07;100.00;100277.41;4936707;28;20234;-67
2022/11/14 09:30:37;;;;;;;193.80;147.90;;;6.00;99.90;;;6.14;100.00;100273.19;4937450;28;20275;-69
2022/11/14 09:33:05;;;;;;;198.18;154.88;;;6.10;99.90;;;6.08;100.00;100273.94;4920530;29;20300;-67
2022/11/14 09:35:38;;;;;;;195.70;152.93;;;6.10;99.90;;;6.17;100.00;100268.00;4938713;28;20233;-67
2022/11/14 09:38:10;;;;;;;208.30;161.00;;;6.20;99.90;;;6.17;100.00;100261.88;4932441;28;20265;-66
2022/11/14 09:41:21;;;;;;;210.75;164.90;;;6.20;99.90;;;6.17;100.00;100254.88;4937880;28;20230;-68
2022/11/14 09:44:55;;;;;;;181.63;144.38;;;6.20;99.90;;;6.26;100.00;100262.97;4942528;28;20230;-67
2022/11/14 09:47:29;;;;;;;197.50;142.95;;;6.20;99.90;;;6.39;100.00;100257.16;4925388;28;20261;-67
2022/11/14 09:50:16;;;;;;;198.02;155.10;;;6.30;99.90;;;6.50;100.00;100265.31;4925317;28;20249;-67
2022/11/14 09:53:02;;;;;;;216.63;158.20;;;6.40;99.90;;;6.56;100.00;100262.81;4936279;28;20242;-66
2022/11/14 09:55:32;;;;;;;193.57;158.45;;;6.50;99.90;;;6.53;100.00;100249.63;4936683;28;20309;-67
2022/11/14 09:58:19;;;;;;;191.93;152.98;;;6.50;99.90;;;6.70;100.00;100261.41;4915197;28;20247;-66
2022/11/14 10:01:17;;;;;;;214.68;167.95;;;6.60;99.90;;;6.61;100.00;100241.91;4950085;28;20222;-67